createdAt,value
2023-04-20T00:00:59.150Z,76.65
2023-04-20T00:01:59.372Z,76.75
2023-04-20T00:02:59.735Z,77.26
2023-04-20T00:03:59.887Z,77.47
2023-04-20T00:04:59.894Z,77.77
2023-04-20T00:06:00.009Z,77.57
2023-04-20T00:07:00.196Z,77.33
2023-04-20T00:08:00.400Z,77.53
2023-04-20T00:09:00.554Z,76.92
2023-04-20T00:10:00.712Z,77.12
2023-04-20T00:11:00.885Z,76.24
2023-04-20T00:12:01.073Z,76.95
2023-04-20T00:13:01.249Z,76.65
2023-04-20T00:14:01.411Z,76.95
2023-04-20T00:15:01.582Z,77.06
2023-04-20T00:16:01.772Z,77.26
2023-04-20T00:17:02.030Z,76.75
2023-04-20T00:18:02.137Z,77.06
2023-04-20T00:19:02.294Z,77.67
2023-04-20T00:20:02.461Z,77.16
2023-04-20T00:21:02.667Z,77.64
2023-04-20T00:22:02.801Z,77.94
2023-04-20T00:23:02.985Z,77.94
2023-04-20T00:24:03.156Z,77.73
2023-04-20T00:25:03.339Z,76.81
2023-04-20T00:26:03.528Z,76.61
2023-04-20T00:27:03.688Z,77.26
2023-04-20T00:28:03.839Z,77.47
2023-04-20T00:29:04.026Z,76.95
2023-04-20T00:30:04.175Z,76.14
2023-04-20T00:31:04.410Z,76.24
2023-04-20T00:32:04.535Z,76.65
2023-04-20T00:33:04.721Z,76.44
2023-04-20T00:34:04.894Z,76.85
2023-04-20T00:35:05.049Z,77.47
2023-04-20T00:36:05.260Z,77.36
2023-04-20T00:37:05.418Z,77.67
2023-04-20T00:38:05.580Z,76.95
2023-04-20T00:39:05.759Z,76.03
2023-04-20T00:40:05.919Z,77.16
2023-04-20T00:41:06.122Z,76.14
2023-04-20T00:42:06.278Z,76.34
2023-04-20T00:43:06.440Z,76.24
2023-04-20T00:44:06.600Z,76.14
2023-04-20T00:45:06.761Z,76.44
2023-04-20T00:46:07.020Z,76.95
2023-04-20T00:47:07.094Z,77.26
2023-04-20T00:48:07.284Z,76.24
2023-04-20T00:49:07.426Z,77.36
2023-04-20T00:50:07.601Z,77.47
2023-04-20T00:51:07.774Z,77.36
2023-04-20T00:52:07.932Z,76.85
2023-04-20T00:53:08.089Z,77.06
2023-04-20T00:54:08.266Z,76.95
2023-04-20T00:55:08.421Z,76.95
2023-04-20T00:56:08.601Z,77.16
2023-04-20T00:57:08.755Z,77.47
2023-04-20T00:58:08.936Z,77.36
2023-04-20T00:59:09.109Z,76.95
2023-04-20T01:00:09.307Z,76.95
2023-04-20T01:01:09.553Z,76.34
2023-04-20T01:02:10.037Z,76.34
2023-04-20T01:03:10.003Z,76.65
2023-04-20T01:04:10.152Z,76.14
2023-04-20T01:05:10.238Z,76.75
2023-04-20T01:06:10.393Z,76.44
2023-04-20T01:07:10.563Z,76.95
2023-04-20T01:08:10.730Z,76.75
2023-04-20T01:09:10.917Z,76.03
2023-04-20T01:10:11.108Z,77.06
2023-04-20T01:11:11.274Z,77.06
2023-04-20T01:12:11.436Z,76.44
2023-04-20T01:13:11.622Z,75.93
2023-04-20T01:14:11.784Z,76.34
2023-04-20T01:15:11.959Z,76.65
2023-04-20T01:16:12.230Z,77.06
2023-04-20T01:17:12.302Z,77.16
2023-04-20T01:18:12.480Z,76.85
2023-04-20T01:19:12.643Z,76.95
2023-04-20T01:20:12.808Z,77.26
2023-04-20T01:21:12.975Z,77.67
2023-04-20T01:22:13.154Z,77.77
2023-04-20T01:23:13.322Z,78.08
2023-04-20T01:24:13.503Z,77.26
2023-04-20T01:25:13.678Z,77.09
2023-04-20T01:26:13.864Z,76.99
2023-04-20T01:27:14.030Z,77.20
2023-04-20T01:28:14.211Z,77.47
2023-04-20T01:29:14.371Z,77.77
2023-04-20T01:30:14.554Z,77.16
2023-04-20T01:31:14.778Z,77.16
2023-04-20T01:32:14.892Z,77.16
2023-04-20T01:33:15.045Z,77.57
2023-04-20T01:34:15.274Z,77.16
2023-04-20T01:35:15.395Z,76.75
2023-04-20T01:36:15.557Z,76.44
2023-04-20T01:37:15.735Z,76.95
2023-04-20T01:38:15.904Z,76.65
2023-04-20T01:39:16.289Z,76.65
2023-04-20T01:40:16.251Z,76.85
2023-04-20T01:41:16.435Z,77.16
2023-04-20T01:42:16.598Z,77.06
2023-04-20T01:43:16.779Z,76.75
2023-04-20T01:44:16.945Z,76.65
2023-04-20T01:45:17.114Z,75.93
2023-04-20T01:46:17.326Z,76.03
2023-04-20T01:47:17.476Z,76.34
2023-04-20T01:48:17.647Z,76.85
2023-04-20T01:49:17.974Z,76.75
2023-04-20T01:50:17.981Z,76.65
2023-04-20T01:51:18.133Z,76.14
2023-04-20T01:52:18.321Z,76.44
2023-04-20T01:53:18.472Z,76.54
2023-04-20T01:54:18.679Z,76.44
2023-04-20T01:55:20.148Z,76.44
2023-04-20T01:56:18.985Z,76.75
2023-04-20T01:57:19.144Z,76.54
2023-04-20T01:58:19.305Z,76.75
2023-04-20T01:59:19.664Z,77.26
2023-04-20T02:00:19.654Z,76.48
2023-04-20T02:01:19.975Z,77.09
2023-04-20T02:02:20.155Z,77.20
2023-04-20T02:03:20.415Z,76.78
2023-04-20T02:04:20.380Z,77.09
2023-04-20T02:05:20.542Z,76.58
2023-04-20T02:06:20.729Z,76.17
2023-04-20T02:07:20.905Z,76.78
2023-04-20T02:08:21.065Z,77.09
2023-04-20T02:09:21.258Z,77.50
2023-04-20T02:10:21.378Z,76.78
2023-04-20T02:11:21.558Z,76.95
2023-04-20T02:12:21.716Z,77.67
2023-04-20T02:13:21.881Z,77.47
2023-04-20T02:14:22.079Z,76.85
2023-04-20T02:15:22.230Z,76.44
2023-04-20T02:16:22.437Z,76.24
2023-04-20T02:17:22.670Z,76.85
2023-04-20T02:18:22.767Z,76.75
2023-04-20T02:19:22.940Z,76.75
2023-04-20T02:20:23.111Z,75.52
2023-04-20T02:21:23.283Z,76.14
2023-04-20T02:22:23.444Z,75.73
2023-04-20T02:23:23.600Z,75.62
2023-04-20T02:24:23.777Z,75.31
2023-04-20T02:25:23.946Z,75.62
2023-04-20T02:26:24.114Z,76.03
2023-04-20T02:27:24.274Z,76.24
2023-04-20T02:28:24.446Z,75.82
2023-04-20T02:29:24.621Z,76.14
2023-04-20T02:30:24.776Z,75.76
2023-04-20T02:31:24.970Z,75.86
2023-04-20T02:32:25.143Z,76.27
2023-04-20T02:33:25.294Z,75.96
2023-04-20T02:34:25.472Z,75.96
2023-04-20T02:35:25.656Z,76.07
2023-04-20T02:36:25.804Z,75.96
2023-04-20T02:37:26.014Z,76.24
2023-04-20T02:38:26.180Z,76.44
2023-04-20T02:39:26.337Z,76.24
2023-04-20T02:40:26.519Z,76.14
2023-04-20T02:41:26.681Z,76.24
2023-04-20T02:42:26.859Z,76.03
2023-04-20T02:43:27.020Z,75.62
2023-04-20T02:44:27.188Z,75.82
2023-04-20T02:45:27.370Z,75.52
2023-04-20T02:46:27.590Z,75.82
2023-04-20T02:47:27.743Z,75.52
2023-04-20T02:48:27.883Z,75.82
2023-04-20T02:49:28.044Z,75.62
2023-04-20T02:50:28.242Z,75.52
2023-04-20T02:51:28.391Z,75.73
2023-04-20T02:52:28.556Z,75.62
2023-04-20T02:53:28.741Z,75.82
2023-04-20T02:54:28.993Z,76.14
2023-04-20T02:55:29.097Z,75.52
2023-04-20T02:56:29.278Z,75.82
2023-04-20T02:57:29.431Z,76.03
2023-04-20T02:58:29.593Z,76.03
2023-04-20T02:59:29.775Z,75.42
2023-04-20T03:00:29.951Z,75.82
2023-04-20T03:01:30.179Z,75.31
2023-04-20T03:02:30.419Z,75.42
2023-04-20T03:03:30.722Z,75.42
2023-04-20T03:04:30.843Z,75.52
2023-04-20T03:05:30.822Z,74.94
2023-04-20T03:06:30.985Z,75.11
2023-04-20T03:07:31.160Z,75.15
2023-04-20T03:08:31.339Z,75.21
2023-04-20T03:09:31.507Z,75.66
2023-04-20T03:10:31.687Z,75.73
2023-04-20T03:11:31.843Z,75.62
2023-04-20T03:12:32.027Z,75.73
2023-04-20T03:13:32.192Z,75.31
2023-04-20T03:14:32.364Z,75.82
2023-04-20T03:15:32.549Z,75.82
2023-04-20T03:16:32.756Z,75.82
2023-04-20T03:17:32.923Z,75.93
2023-04-20T03:18:33.064Z,76.14
2023-04-20T03:19:33.266Z,75.62
2023-04-20T03:20:33.410Z,75.21
2023-04-20T03:21:33.576Z,75.31
2023-04-20T03:22:33.764Z,75.42
2023-04-20T03:23:33.894Z,75.31
2023-04-20T03:24:34.053Z,75.62
2023-04-20T03:25:34.270Z,75.52
2023-04-20T03:26:34.407Z,75.31
2023-04-20T03:27:34.572Z,75.21
2023-04-20T03:28:34.734Z,75.73
2023-04-20T03:29:34.917Z,75.45
2023-04-20T03:30:35.079Z,75.45
2023-04-20T03:31:35.288Z,75.56
2023-04-20T03:32:35.448Z,75.04
2023-04-20T03:33:35.605Z,75.35
2023-04-20T03:34:35.798Z,75.66
2023-04-20T03:35:35.938Z,75.86
2023-04-20T03:36:36.116Z,75.56
2023-04-20T03:37:36.273Z,75.66
2023-04-20T03:38:36.459Z,76.37
2023-04-20T03:39:36.649Z,76.37
2023-04-20T03:40:36.812Z,76.48
2023-04-20T03:41:36.967Z,76.58
2023-04-20T03:42:37.143Z,76.48
2023-04-20T03:43:37.306Z,76.48
2023-04-20T03:44:37.488Z,75.56
2023-04-20T03:45:37.708Z,75.66
2023-04-20T03:46:37.847Z,75.56
2023-04-20T03:47:38.051Z,75.56
2023-04-20T03:48:38.169Z,75.66
2023-04-20T03:49:38.357Z,75.76
2023-04-20T03:50:38.545Z,75.86
2023-04-20T03:51:38.687Z,75.76
2023-04-20T03:52:38.844Z,75.66
2023-04-20T03:53:39.696Z,76.07
2023-04-20T03:57:08.080Z,76.27
2023-04-20T03:58:08.220Z,75.66
2023-04-20T03:59:08.408Z,75.76
2023-04-20T04:00:08.571Z,76.37
2023-04-20T04:01:08.748Z,75.86
2023-04-20T04:02:09.048Z,75.76
2023-04-20T04:03:09.239Z,75.96
2023-04-20T04:04:09.742Z,75.66
2023-04-20T04:05:09.537Z,75.66
2023-04-20T04:06:09.590Z,75.45
2023-04-20T04:07:09.756Z,75.56
2023-04-20T04:08:09.938Z,75.76
2023-04-20T04:09:10.124Z,75.56
2023-04-20T04:10:10.291Z,75.76
2023-04-20T04:11:10.468Z,75.24
2023-04-20T04:12:10.632Z,75.35
2023-04-20T04:13:10.802Z,75.62
2023-04-20T04:14:10.990Z,75.93
2023-04-20T04:15:11.152Z,76.14
2023-04-20T04:16:11.330Z,75.82
2023-04-20T04:17:11.530Z,75.82
2023-04-20T04:18:11.673Z,75.52
2023-04-20T04:19:11.863Z,75.21
2023-04-20T04:20:12.046Z,75.11
2023-04-20T04:21:12.205Z,75.31
2023-04-20T04:22:12.364Z,75.01
2023-04-20T04:23:12.543Z,75.21
2023-04-20T04:24:12.717Z,75.21
2023-04-20T04:25:12.885Z,75.01
2023-04-20T04:26:13.050Z,75.21
2023-04-20T04:27:13.215Z,75.01
2023-04-20T04:28:13.376Z,74.80
2023-04-20T04:29:13.575Z,75.01
2023-04-20T04:30:13.723Z,74.90
2023-04-20T04:31:13.910Z,75.11
2023-04-20T04:32:14.121Z,75.11
2023-04-20T04:33:14.244Z,74.90
2023-04-20T04:34:14.418Z,74.90
2023-04-20T04:35:14.586Z,75.31
2023-04-20T04:36:14.751Z,75.11
2023-04-20T04:37:14.924Z,75.01
2023-04-20T04:38:15.111Z,75.21
2023-04-20T04:39:15.398Z,74.97
2023-04-20T04:40:15.421Z,74.56
2023-04-20T04:41:15.592Z,74.36
2023-04-20T04:42:15.769Z,74.56
2023-04-20T04:43:15.951Z,74.97
2023-04-20T04:44:16.141Z,74.77
2023-04-20T04:45:16.273Z,73.95
2023-04-20T04:46:16.447Z,74.46
2023-04-20T04:47:16.612Z,74.46
2023-04-20T04:48:16.786Z,74.46
2023-04-20T04:49:17.253Z,74.56
2023-04-20T04:50:17.122Z,74.87
2023-04-20T04:51:17.316Z,74.36
2023-04-20T04:52:17.471Z,74.26
2023-04-20T04:53:17.662Z,73.91
2023-04-20T04:54:17.798Z,73.61
2023-04-20T04:55:17.972Z,73.30
2023-04-20T04:56:18.125Z,73.30
2023-04-20T04:57:18.294Z,73.61
2023-04-20T04:58:18.481Z,73.61
2023-04-20T04:59:18.812Z,72.78
2023-04-20T05:00:18.846Z,73.20
2023-04-20T05:01:19.049Z,73.10
2023-04-20T05:02:19.315Z,73.40
2023-04-20T05:03:19.474Z,73.40
2023-04-20T05:04:19.607Z,73.40
2023-04-20T05:05:19.700Z,73.71
2023-04-20T05:06:19.886Z,73.20
2023-04-20T05:07:20.067Z,73.30
2023-04-20T05:08:20.258Z,73.30
2023-04-20T05:09:20.729Z,72.69
2023-04-20T05:10:20.615Z,72.89
2023-04-20T05:11:20.784Z,73.40
2023-04-20T05:12:20.973Z,73.44
2023-04-20T05:13:21.165Z,73.81
2023-04-20T05:14:21.331Z,74.22
2023-04-20T05:15:21.488Z,72.78
2023-04-20T05:16:21.715Z,72.38
2023-04-20T05:17:21.856Z,72.58
2023-04-20T05:18:22.011Z,72.28
2023-04-20T05:19:22.172Z,72.48
2023-04-20T05:20:22.327Z,72.45
2023-04-20T05:21:22.509Z,71.42
2023-04-20T05:22:22.691Z,71.62
2023-04-20T05:23:22.866Z,71.32
2023-04-20T05:24:23.007Z,71.53
2023-04-20T05:25:23.181Z,71.62
2023-04-20T05:26:23.353Z,72.04
2023-04-20T05:27:23.529Z,71.73
2023-04-20T05:28:23.724Z,71.53
2023-04-20T05:29:23.915Z,71.22
2023-04-20T05:30:24.092Z,71.94
2023-04-20T05:31:24.294Z,71.32
2023-04-20T05:32:24.450Z,71.83
2023-04-20T05:33:24.620Z,71.83
2023-04-20T05:34:24.772Z,71.94
2023-04-20T05:35:24.948Z,71.94
2023-04-20T05:36:25.130Z,72.24
2023-04-20T05:37:25.307Z,71.73
2023-04-20T05:38:25.493Z,71.83
2023-04-20T05:39:25.657Z,71.73
2023-04-20T05:40:25.837Z,71.53
2023-04-20T05:41:25.998Z,71.59
2023-04-20T05:42:26.172Z,70.98
2023-04-20T05:43:26.355Z,70.98
2023-04-20T05:44:26.520Z,70.57
2023-04-20T05:45:26.794Z,70.43
2023-04-20T05:46:27.078Z,70.64
2023-04-20T05:47:27.064Z,70.54
2023-04-20T05:48:29.537Z,70.03
2023-04-20T05:49:27.390Z,69.52
2023-04-20T05:50:27.582Z,69.31
2023-04-20T05:51:27.751Z,69.96
2023-04-20T05:52:27.925Z,70.37
2023-04-20T05:53:28.120Z,70.16
2023-04-20T05:54:28.250Z,70.64
2023-04-20T05:55:28.421Z,69.72
2023-04-20T05:56:28.610Z,69.82
2023-04-20T05:57:28.781Z,69.72
2023-04-20T05:58:28.975Z,70.34
2023-04-20T05:59:29.153Z,70.23
2023-04-20T06:00:29.323Z,69.48
2023-04-20T06:01:29.487Z,68.87
2023-04-20T06:02:29.819Z,69.35
2023-04-20T06:03:30.016Z,68.63
2023-04-20T06:04:30.223Z,68.60
2023-04-20T06:05:30.271Z,67.58
2023-04-20T06:06:30.363Z,67.14
2023-04-20T06:07:30.553Z,67.35
2023-04-20T06:08:30.728Z,66.94
2023-04-20T06:09:30.895Z,66.50
2023-04-20T06:10:31.068Z,66.39
2023-04-20T06:11:31.240Z,67.01
2023-04-20T06:12:31.406Z,66.57
2023-04-20T06:13:31.617Z,65.95
2023-04-20T06:14:31.735Z,65.68
2023-04-20T06:15:32.037Z,65.58
2023-04-20T06:16:32.140Z,66.39
2023-04-20T06:17:32.278Z,66.70
2023-04-20T06:18:32.449Z,65.68
2023-04-20T06:19:32.606Z,66.30
2023-04-20T06:20:32.776Z,66.80
2023-04-20T06:21:32.949Z,67.11
2023-04-20T06:22:33.142Z,67.52
2023-04-20T06:23:33.321Z,66.60
2023-04-20T06:24:33.496Z,66.30
2023-04-20T06:25:33.657Z,66.02
2023-04-20T06:26:33.837Z,66.02
2023-04-20T06:27:34.004Z,65.95
2023-04-20T06:28:34.151Z,66.56
2023-04-20T06:29:34.328Z,67.58
2023-04-20T06:30:34.488Z,68.23
2023-04-20T06:31:34.739Z,67.51
2023-04-20T06:32:34.887Z,67.61
2023-04-20T06:33:35.020Z,67.61
2023-04-20T06:34:35.181Z,67.30
2023-04-20T06:35:35.349Z,67.51
2023-04-20T06:36:35.530Z,66.39
2023-04-20T06:37:35.721Z,67.21
2023-04-20T06:38:35.874Z,67.41
2023-04-20T06:39:36.092Z,68.02
2023-04-20T06:40:36.238Z,67.41
2023-04-20T06:41:36.412Z,67.92
2023-04-20T06:42:36.632Z,67.30
2023-04-20T06:43:36.749Z,67.89
2023-04-20T06:44:36.919Z,67.07
2023-04-20T06:45:37.107Z,66.77
2023-04-20T06:46:37.344Z,66.83
2023-04-20T06:47:37.512Z,67.65
2023-04-20T06:48:37.668Z,65.92
2023-04-20T06:49:37.796Z,66.12
2023-04-20T06:50:37.969Z,65.00
2023-04-20T06:51:38.144Z,64.59
2023-04-20T06:52:38.329Z,65.81
2023-04-20T06:53:38.582Z,65.00
2023-04-20T06:54:38.723Z,65.20
2023-04-20T06:55:38.869Z,65.92
2023-04-20T06:56:39.049Z,65.61
2023-04-20T06:57:39.231Z,64.90
2023-04-20T06:58:39.395Z,65.17
2023-04-20T06:59:39.571Z,65.17
2023-04-20T07:00:39.736Z,65.48
2023-04-20T07:01:39.924Z,63.75
2023-04-20T07:02:40.238Z,64.15
2023-04-20T07:03:40.367Z,64.12
2023-04-20T07:04:40.509Z,64.63
2023-04-20T07:05:40.623Z,62.70
2023-04-20T07:06:40.796Z,62.39
2023-04-20T07:07:41.004Z,61.98
2023-04-20T07:08:41.159Z,62.70
2023-04-20T07:09:41.309Z,62.56
2023-04-20T07:10:41.479Z,62.36
2023-04-20T07:11:41.657Z,62.05
2023-04-20T07:12:43.649Z,62.56
2023-04-20T07:13:42.007Z,61.85
2023-04-20T07:14:42.195Z,61.95
2023-04-20T07:15:42.381Z,61.31
2023-04-20T07:16:42.624Z,61.76
2023-04-20T07:17:42.774Z,60.31
2023-04-20T07:18:42.914Z,59.24
2023-04-20T07:19:43.066Z,58.94
2023-04-20T07:20:43.258Z,57.68
2023-04-20T07:21:43.431Z,57.41
2023-04-20T07:22:43.611Z,58.02
2023-04-20T07:23:45.131Z,57.34
2023-04-20T07:24:43.956Z,57.67
2023-04-20T07:25:44.136Z,58.69
2023-04-20T07:26:44.297Z,59.09
2023-04-20T07:27:44.477Z,59.01
2023-04-20T07:28:44.643Z,59.01
2023-04-20T07:29:44.803Z,60.24
2023-04-20T07:30:44.977Z,60.14
2023-04-20T07:31:45.212Z,59.86
2023-04-20T07:32:45.374Z,59.55
2023-04-20T07:33:45.503Z,60.37
2023-04-20T07:34:45.670Z,60.68
2023-04-20T07:35:45.837Z,60.37
2023-04-20T07:36:46.022Z,60.16
2023-04-20T07:37:46.174Z,60.57
2023-04-20T07:38:46.358Z,61.59
2023-04-20T07:39:46.532Z,61.18
2023-04-20T07:40:46.697Z,60.06
2023-04-20T07:41:46.879Z,60.47
2023-04-20T07:42:47.055Z,60.77
2023-04-20T07:43:47.229Z,60.98
2023-04-20T07:44:47.405Z,60.98
2023-04-20T07:45:47.581Z,61.18
2023-04-20T07:46:47.770Z,61.87
2023-04-20T07:47:47.949Z,61.15
2023-04-20T07:48:48.305Z,60.75
2023-04-20T07:49:48.303Z,61.05
2023-04-20T07:50:48.487Z,61.05
2023-04-20T07:51:48.684Z,60.52
2023-04-20T07:52:48.830Z,60.00
2023-04-20T07:53:48.986Z,60.11
2023-04-20T07:54:49.158Z,58.69
2023-04-20T07:55:50.959Z,59.19
2023-04-20T07:56:49.534Z,59.09
2023-04-20T07:57:49.646Z,58.86
2023-04-20T07:58:49.844Z,58.58
2023-04-20T07:59:50.010Z,58.96
2023-04-20T08:00:50.163Z,59.37
2023-04-20T08:01:50.334Z,58.45
2023-04-20T08:02:50.719Z,58.96
2023-04-20T08:03:50.879Z,60.15
2023-04-20T08:04:51.118Z,58.83
2023-04-20T08:05:51.109Z,58.12
2023-04-20T08:06:51.201Z,58.80
2023-04-20T08:07:51.372Z,59.01
2023-04-20T08:08:51.535Z,58.70
2023-04-20T08:09:51.711Z,57.28
2023-04-20T08:10:51.892Z,56.77
2023-04-20T08:11:52.073Z,57.38
2023-04-20T08:12:52.827Z,57.71
2023-04-20T08:13:52.420Z,58.73
2023-04-20T08:14:52.611Z,57.92
2023-04-20T08:15:52.840Z,57.43
2023-04-20T08:16:52.981Z,58.04
2023-04-20T08:17:53.152Z,58.56
2023-04-20T08:18:53.328Z,59.16
2023-04-20T08:19:53.472Z,59.06
2023-04-20T08:20:53.653Z,58.76
2023-04-20T08:21:53.833Z,58.76
2023-04-20T08:22:54.039Z,58.65
2023-04-20T08:23:54.207Z,59.47
2023-04-20T08:24:54.346Z,58.02
2023-04-20T08:25:54.579Z,58.12
2023-04-20T08:26:54.718Z,57.99
2023-04-20T08:27:54.849Z,57.86
2023-04-20T08:28:55.040Z,57.46
2023-04-20T08:29:55.198Z,56.31
2023-04-20T08:30:55.388Z,56.41
2023-04-20T08:31:55.788Z,56.70
2023-04-20T08:32:55.717Z,54.97
2023-04-20T08:33:55.889Z,55.68
2023-04-20T08:34:56.015Z,54.86
2023-04-20T08:35:56.249Z,55.47
2023-04-20T08:36:56.402Z,55.07
2023-04-20T08:37:56.551Z,55.17
2023-04-20T08:38:56.762Z,55.76
2023-04-20T08:39:56.935Z,54.33
2023-04-20T08:40:57.107Z,54.82
2023-04-20T08:41:57.294Z,53.88
2023-04-20T08:42:57.496Z,54.36
2023-04-20T08:43:57.590Z,52.61
2023-04-20T08:44:57.778Z,53.42
2023-04-20T08:45:57.973Z,52.72
2023-04-20T08:46:58.308Z,53.32
2023-04-20T08:47:58.341Z,52.31
2023-04-20T08:48:58.491Z,52.41
2023-04-20T08:49:58.675Z,51.90
2023-04-20T08:50:58.858Z,53.32
2023-04-20T08:51:59.047Z,52.41
2023-04-20T08:52:59.218Z,53.12
2023-04-20T08:53:59.404Z,52.74
2023-04-20T08:54:59.630Z,53.05
2023-04-20T08:55:59.768Z,54.16
2023-04-20T08:57:00.009Z,53.34
2023-04-20T08:58:00.147Z,53.25
2023-04-20T08:59:00.292Z,53.27
2023-04-20T09:00:00.484Z,53.58
2023-04-20T09:01:00.705Z,53.70
2023-04-20T09:02:00.938Z,54.92
2023-04-20T09:03:01.200Z,54.84
2023-04-20T09:04:01.374Z,54.74
2023-04-20T09:05:01.512Z,55.07
2023-04-20T09:06:01.511Z,54.77
2023-04-20T09:07:01.700Z,55.60
2023-04-20T09:08:01.848Z,55.40
2023-04-20T09:09:02.038Z,55.71
2023-04-20T09:10:02.227Z,55.80
2023-04-20T09:11:02.369Z,56.41
2023-04-20T09:12:02.534Z,56.21
2023-04-20T09:13:02.844Z,55.50
2023-04-20T09:14:02.869Z,56.52
2023-04-20T09:15:03.060Z,56.54
2023-04-20T09:16:03.311Z,57.25
2023-04-20T09:17:03.432Z,56.85
2023-04-20T09:18:03.574Z,56.74
2023-04-20T09:19:03.721Z,56.47
2023-04-20T09:20:03.871Z,56.77
2023-04-20T09:21:04.051Z,57.51
2023-04-20T09:22:04.234Z,58.02
2023-04-20T09:23:04.392Z,58.33
2023-04-20T09:24:04.553Z,58.96
2023-04-20T09:25:04.739Z,58.04
2023-04-20T09:26:04.906Z,58.94
2023-04-20T09:27:05.082Z,59.34
2023-04-20T09:28:05.265Z,59.03
2023-04-20T09:29:05.455Z,58.83
2023-04-20T09:30:05.662Z,58.94
2023-04-20T09:31:05.809Z,59.75
2023-04-20T09:32:06.051Z,59.14
2023-04-20T09:33:06.243Z,60.08
2023-04-20T09:34:06.360Z,60.38
2023-04-20T09:35:06.564Z,60.18
2023-04-20T09:36:06.727Z,59.67
2023-04-20T09:37:07.393Z,60.89
2023-04-20T09:38:07.099Z,60.89
2023-04-20T09:39:07.268Z,61.10
2023-04-20T09:40:07.417Z,61.71
2023-04-20T09:41:07.586Z,62.82
2023-04-20T09:42:07.750Z,61.51
2023-04-20T09:43:07.932Z,62.11
2023-04-20T09:44:08.122Z,61.83
2023-04-20T09:45:08.373Z,61.51
2023-04-20T09:46:08.550Z,61.22
2023-04-20T09:47:08.668Z,61.43
2023-04-20T09:48:08.838Z,61.74
2023-04-20T09:49:09.009Z,62.04
2023-04-20T09:50:22.724Z,62.14
2023-04-20T09:51:10.364Z,62.24
2023-04-20T09:52:09.549Z,62.82
2023-04-20T09:53:09.712Z,63.13
2023-04-20T09:54:09.863Z,61.81
2023-04-20T09:55:10.068Z,61.51
2023-04-20T09:56:10.225Z,62.52
2023-04-20T09:57:10.397Z,62.01
2023-04-20T09:58:10.567Z,62.01
2023-04-20T09:59:10.752Z,61.40
2023-04-20T10:00:10.967Z,62.11
2023-04-20T10:01:11.167Z,62.41
2023-04-20T10:02:11.410Z,60.36
2023-04-20T10:03:11.644Z,60.56
2023-04-20T10:04:11.830Z,60.86
2023-04-20T10:05:11.773Z,61.47
2023-04-20T10:06:11.968Z,61.57
2023-04-20T10:07:12.149Z,61.78
2023-04-20T10:08:12.310Z,61.88
2023-04-20T10:09:12.519Z,60.86
2023-04-20T10:10:12.717Z,60.76
2023-04-20T10:11:12.875Z,61.68
2023-04-20T10:12:13.035Z,60.66
2023-04-20T10:13:13.215Z,60.86
2023-04-20T10:14:13.362Z,61.95
2023-04-20T10:15:13.558Z,60.83
2023-04-20T10:16:13.834Z,61.04
2023-04-20T10:17:13.978Z,60.94
2023-04-20T10:18:14.142Z,60.94
2023-04-20T10:19:14.279Z,62.05
2023-04-20T10:20:14.431Z,60.74
2023-04-20T10:21:14.626Z,60.63
2023-04-20T10:22:14.781Z,61.04
2023-04-20T10:23:14.974Z,61.34
2023-04-20T10:24:16.102Z,61.04
2023-04-20T10:25:15.310Z,61.41
2023-04-20T10:26:15.484Z,62.43
2023-04-20T10:27:15.648Z,61.41
2023-04-20T10:28:15.814Z,61.01
2023-04-20T10:29:15.973Z,60.30
2023-04-20T10:30:16.164Z,60.60
2023-04-20T10:31:16.347Z,60.83
2023-04-20T10:32:16.482Z,60.74
2023-04-20T10:33:16.816Z,60.83
2023-04-20T10:34:17.090Z,60.83
2023-04-20T10:35:17.013Z,61.14
2023-04-20T10:36:17.207Z,61.21
2023-04-20T10:37:17.389Z,60.10
2023-04-20T10:38:17.549Z,60.20
2023-04-20T10:39:19.569Z,61.39
2023-04-20T10:40:17.963Z,60.35
2023-04-20T10:41:18.084Z,59.03
2023-04-20T10:42:18.412Z,59.10
2023-04-20T10:43:18.449Z,58.69
2023-04-20T10:44:18.780Z,58.39
2023-04-20T10:45:18.814Z,58.47
2023-04-20T10:46:19.042Z,56.95
2023-04-20T10:47:19.213Z,57.55
2023-04-20T10:48:19.337Z,57.62
2023-04-20T10:49:19.743Z,58.23
2023-04-20T10:50:19.700Z,58.51
2023-04-20T10:51:19.888Z,57.09
2023-04-20T10:52:20.052Z,57.50
2023-04-20T10:53:20.203Z,56.28
2023-04-20T10:54:20.380Z,56.18
2023-04-20T10:55:20.539Z,56.36
2023-04-20T10:56:20.718Z,56.26
2023-04-20T10:57:20.885Z,55.73
2023-04-20T10:58:21.047Z,55.62
2023-04-20T10:59:21.317Z,56.63
2023-04-20T11:00:21.398Z,55.42
2023-04-20T11:01:21.618Z,55.82
2023-04-20T11:02:21.982Z,56.36
2023-04-20T11:03:22.119Z,55.75
2023-04-20T11:04:22.097Z,55.35
2023-04-20T11:05:22.365Z,55.93
2023-04-20T11:06:22.409Z,57.24
2023-04-20T11:07:22.657Z,55.11
2023-04-20T11:08:22.758Z,54.61
2023-04-20T11:09:22.929Z,55.22
2023-04-20T11:10:23.108Z,56.20
2023-04-20T11:11:23.294Z,56.51
2023-04-20T11:12:23.488Z,56.51
2023-04-20T11:13:23.648Z,55.19
2023-04-20T11:14:23.819Z,56.00
2023-04-20T11:15:24.019Z,54.05
2023-04-20T11:16:30.418Z,54.36
2023-04-20T11:17:25.481Z,55.57
2023-04-20T11:18:24.529Z,56.07
2023-04-20T11:19:24.710Z,55.57
2023-04-20T11:20:24.891Z,54.46
2023-04-20T11:21:25.053Z,53.96
2023-04-20T11:22:25.239Z,54.56
2023-04-20T11:23:25.422Z,53.85
2023-04-20T11:24:25.603Z,53.55
2023-04-20T11:25:25.800Z,53.96
2023-04-20T11:26:25.968Z,53.96
2023-04-20T11:27:26.147Z,54.03
2023-04-20T11:28:26.328Z,53.12
2023-04-20T11:29:26.491Z,53.72
2023-04-20T11:30:26.689Z,54.31
2023-04-20T11:31:26.999Z,53.67
2023-04-20T11:32:27.166Z,54.18
2023-04-20T11:33:27.208Z,53.85
2023-04-20T11:34:27.373Z,52.94
2023-04-20T11:35:27.552Z,52.54
2023-04-20T11:36:27.745Z,52.22
2023-04-20T11:37:27.925Z,52.22
2023-04-20T11:38:28.082Z,51.71
2023-04-20T11:39:28.226Z,51.81
2023-04-20T11:40:28.761Z,51.48
2023-04-20T11:41:28.601Z,50.80
2023-04-20T11:42:28.779Z,50.98
2023-04-20T11:43:28.942Z,50.68
2023-04-20T11:44:29.168Z,51.40
2023-04-20T11:45:29.313Z,52.11
2023-04-20T11:46:29.549Z,52.29
2023-04-20T11:47:29.672Z,51.99
2023-04-20T11:48:29.817Z,51.79
2023-04-20T11:49:29.991Z,51.20
2023-04-20T11:50:30.153Z,51.51
2023-04-20T11:51:30.329Z,53.30
2023-04-20T11:52:30.509Z,51.48
2023-04-20T11:53:30.661Z,51.61
2023-04-20T11:54:30.856Z,52.01
2023-04-20T11:55:31.031Z,52.22
2023-04-20T11:56:31.208Z,53.52
2023-04-20T11:57:31.380Z,52.94
2023-04-20T11:58:31.544Z,51.93
2023-04-20T11:59:31.703Z,52.14
2023-04-20T12:00:31.880Z,51.84
2023-04-20T12:01:32.041Z,52.34
2023-04-20T12:02:32.323Z,51.53
2023-04-20T12:03:32.735Z,51.73
2023-04-20T12:04:34.488Z,52.14
2023-04-20T12:05:32.874Z,52.94
2023-04-20T12:06:32.931Z,53.34
2023-04-20T12:07:33.082Z,53.45
2023-04-20T12:08:33.250Z,52.04
2023-04-20T12:09:33.425Z,53.45
2023-04-20T12:10:33.688Z,54.18
2023-04-20T12:11:33.846Z,53.55
2023-04-20T12:12:33.967Z,53.96
2023-04-20T12:13:34.131Z,53.88
2023-04-20T12:14:34.328Z,53.67
2023-04-20T12:15:34.612Z,54.18
2023-04-20T12:16:34.721Z,53.67
2023-04-20T12:17:34.961Z,53.78
2023-04-20T12:18:35.032Z,54.36
2023-04-20T12:19:35.220Z,53.96
2023-04-20T12:20:35.398Z,54.25
2023-04-20T12:21:35.568Z,53.96
2023-04-20T12:22:35.782Z,53.02
2023-04-20T12:23:35.917Z,53.83
2023-04-20T12:24:36.067Z,53.12
2023-04-20T12:25:36.256Z,52.22
2023-04-20T12:26:38.772Z,53.63
2023-04-20T12:27:36.620Z,53.60
2023-04-20T12:28:36.789Z,53.80
2023-04-20T12:29:36.965Z,52.37
2023-04-20T12:30:37.129Z,53.38
2023-04-20T12:31:37.383Z,52.97
2023-04-20T12:32:37.750Z,53.25
2023-04-20T12:33:37.682Z,52.04
2023-04-20T12:34:37.894Z,52.84
2023-04-20T12:35:38.049Z,51.14
2023-04-20T12:36:38.215Z,51.84
2023-04-20T12:37:38.416Z,51.84
2023-04-20T12:38:38.587Z,51.23
2023-04-20T12:39:38.754Z,50.93
2023-04-20T12:40:38.923Z,52.34
2023-04-20T12:41:39.217Z,51.54
2023-04-20T12:42:39.310Z,52.14
2023-04-20T12:43:39.441Z,51.43
2023-04-20T12:44:39.619Z,52.74
2023-04-20T12:45:39.813Z,51.34
2023-04-20T12:46:40.031Z,51.86
2023-04-20T12:47:40.247Z,52.47
2023-04-20T12:48:40.319Z,52.97
2023-04-20T12:49:40.498Z,53.09
2023-04-20T12:50:40.689Z,52.89
2023-04-20T12:51:40.855Z,53.63
2023-04-20T12:52:41.042Z,52.72
2023-04-20T12:53:41.174Z,53.32
2023-04-20T12:54:43.861Z,53.52
2023-04-20T12:55:41.525Z,54.73
2023-04-20T12:56:41.705Z,56.15
2023-04-20T12:57:41.848Z,54.23